createdAt,value
2022-10-20T00:04:29.624Z,78.49
2022-10-20T00:09:34.480Z,78.01
2022-10-20T00:14:36.393Z,78.64
2022-10-20T00:19:38.339Z,78.71
2022-10-20T00:24:40.411Z,78.45
2022-10-20T00:29:42.391Z,78.58
2022-10-20T00:34:44.256Z,78.70
2022-10-20T00:39:46.103Z,78.89
2022-10-20T00:44:59.839Z,79.11
2022-10-20T00:50:18.562Z,79.34
2022-10-20T00:55:25.970Z,79.40
2022-10-20T01:00:29.200Z,79.17
2022-10-20T01:05:31.048Z,79.22
2022-10-20T01:10:42.027Z,79.56
2022-10-20T01:16:09.475Z,79.36
2022-10-20T01:21:13.290Z,79.65
2022-10-20T01:26:30.330Z,79.92
2022-10-20T01:31:44.758Z,80.02
2022-10-20T01:37:00.774Z,80.12
2022-10-20T01:42:09.757Z,80.36
2022-10-20T01:47:13.948Z,80.14
2022-10-20T01:52:16.066Z,80.07
2022-10-20T01:57:38.898Z,79.97
2022-10-20T02:02:59.073Z,79.70
2022-10-20T02:08:13.746Z,79.84
2022-10-20T02:13:28.067Z,79.51
2022-10-20T02:18:39.986Z,80.06
2022-10-20T02:23:46.324Z,80.00
2022-10-20T02:29:00.855Z,80.36
2022-10-20T02:34:03.552Z,80.06
2022-10-20T02:39:05.438Z,80.42
2022-10-20T02:44:07.253Z,81.20
2022-10-20T02:49:09.397Z,80.67
2022-10-20T02:54:13.590Z,80.70
2022-10-20T02:59:16.997Z,81.21
2022-10-20T03:04:27.053Z,81.80
2022-10-20T03:09:29.103Z,82.01
2022-10-20T03:14:31.321Z,81.96
2022-10-20T03:19:35.633Z,81.75
2022-10-20T03:24:37.433Z,81.80
2022-10-20T03:29:39.194Z,82.55
2022-10-20T03:34:40.895Z,82.41
2022-10-20T03:39:42.674Z,82.60
2022-10-20T03:44:45.268Z,81.99
2022-10-20T03:49:47.046Z,82.82
2022-10-20T03:54:48.930Z,81.95
2022-10-20T03:59:50.675Z,82.46
2022-10-20T04:04:52.676Z,82.50
2022-10-20T04:09:57.602Z,82.59
2022-10-20T04:14:59.419Z,82.52
2022-10-20T04:20:01.218Z,82.95
2022-10-20T04:25:04.409Z,83.26
2022-10-20T04:30:07.106Z,82.79
2022-10-20T04:35:09.441Z,82.93
2022-10-20T04:40:11.662Z,82.95
2022-10-20T04:45:13.467Z,83.05
2022-10-20T04:50:15.280Z,83.65
2022-10-20T04:55:17.298Z,83.42
2022-10-20T05:00:19.026Z,84.17
2022-10-20T05:05:21.129Z,83.35
2022-10-20T05:10:22.937Z,83.18
2022-10-20T05:15:24.687Z,83.31
2022-10-20T05:20:26.376Z,84.09
2022-10-20T05:25:36.626Z,84.01
2022-10-20T05:30:38.708Z,84.65
2022-10-20T05:35:40.421Z,84.86
2022-10-20T05:40:42.193Z,84.16
2022-10-20T05:45:43.876Z,84.59
2022-10-20T05:55:47.160Z,85.33
2022-10-20T06:00:52.857Z,85.82
2022-10-20T06:05:59.151Z,85.74
2022-10-20T06:11:06.461Z,86.04
2022-10-20T06:16:13.179Z,85.46
2022-10-20T06:21:28.629Z,85.25
2022-10-20T06:26:36.720Z,85.26
2022-10-20T06:31:41.050Z,85.64
2022-10-20T06:36:43.480Z,85.82
2022-10-20T06:41:50.813Z,85.98
2022-10-20T06:46:55.525Z,85.90
2022-10-20T06:51:57.742Z,85.76
2022-10-20T06:56:59.952Z,85.66
2022-10-20T07:02:02.181Z,86.34
2022-10-20T07:07:03.918Z,86.34
2022-10-20T07:12:05.788Z,86.31
2022-10-20T07:17:07.712Z,86.61
2022-10-20T07:22:09.436Z,88.59
2022-10-20T07:27:11.081Z,86.96
2022-10-20T07:32:12.891Z,88.55
2022-10-20T07:37:14.607Z,87.96
2022-10-20T07:42:16.309Z,87.95
2022-10-20T07:47:18.007Z,87.94
2022-10-20T07:52:19.887Z,88.26
2022-10-20T07:57:21.705Z,87.52
2022-10-20T08:02:23.713Z,89.59
2022-10-20T08:07:25.508Z,88.87
2022-10-20T08:12:27.321Z,88.64
2022-10-20T08:17:29.112Z,87.34
2022-10-20T08:22:30.927Z,85.79
2022-10-20T08:27:32.662Z,85.46
2022-10-20T08:32:34.549Z,85.40
2022-10-20T08:37:37.190Z,83.77
2022-10-20T08:42:42.243Z,82.95
2022-10-20T08:47:46.144Z,82.66
2022-10-20T08:52:54.760Z,81.73
2022-10-20T08:58:03.851Z,79.18
2022-10-20T09:03:30.866Z,79.16
2022-10-20T09:08:39.503Z,76.36
2022-10-20T09:13:44.442Z,73.63
2022-10-20T09:18:50.965Z,73.46
2022-10-20T09:24:03.438Z,72.75
2022-10-20T09:29:15.336Z,72.57
2022-10-20T09:34:23.297Z,71.89
2022-10-20T09:39:36.241Z,70.43
2022-10-20T09:44:47.010Z,69.61
2022-10-20T09:49:59.927Z,69.01
2022-10-20T09:55:30.755Z,69.15
2022-10-20T10:00:50.546Z,68.03
2022-10-20T10:06:01.168Z,68.21
2022-10-20T10:11:16.426Z,68.29
2022-10-20T10:16:22.048Z,67.32
2022-10-20T10:21:24.407Z,66.77
2022-10-20T10:26:47.957Z,66.83
2022-10-20T10:32:26.060Z,66.75
2022-10-20T10:37:33.856Z,66.71
2022-10-20T10:43:01.941Z,66.83
2022-10-20T10:48:12.736Z,67.06
2022-10-20T10:53:59.815Z,67.04
2022-10-20T10:59:27.945Z,66.87
2022-10-20T11:04:43.506Z,66.34
2022-10-20T11:10:51.022Z,65.47
2022-10-20T11:16:28.805Z,65.03
2022-10-20T11:22:17.024Z,65.48
2022-10-20T11:27:25.862Z,65.08
2022-10-20T11:37:50.822Z,65.89
2022-10-20T11:43:19.580Z,65.53
2022-10-20T11:48:38.861Z,65.51
2022-10-20T11:54:11.594Z,65.15
2022-10-20T11:59:53.006Z,65.61
2022-10-20T12:05:20.204Z,64.65
2022-10-20T12:10:49.955Z,64.38
2022-10-20T12:15:52.450Z,64.11
2022-10-20T12:21:17.156Z,63.82
2022-10-20T12:26:30.291Z,63.58
2022-10-20T12:32:09.404Z,63.66
2022-10-20T12:37:19.947Z,63.67
2022-10-20T12:42:38.214Z,64.00
2022-10-20T12:47:52.123Z,64.70
2022-10-20T12:52:54.314Z,64.16
2022-10-20T12:58:19.047Z,64.32
2022-10-20T13:03:49.616Z,64.79
2022-10-20T13:09:07.188Z,64.70
2022-10-20T13:14:12.202Z,64.40
2022-10-20T13:19:31.500Z,64.03
2022-10-20T13:24:44.087Z,64.96
2022-10-20T13:29:48.538Z,65.34
2022-10-20T13:35:51.508Z,64.50
2022-10-20T13:41:48.030Z,64.78
2022-10-20T13:47:36.257Z,64.68
2022-10-20T13:52:46.438Z,64.69
2022-10-20T14:09:30.325Z,64.81
2022-10-20T14:20:30.094Z,65.15
2022-10-20T14:25:32.991Z,65.11
2022-10-20T14:30:38.734Z,65.50
2022-10-20T14:35:53.362Z,66.35
2022-10-20T14:41:06.036Z,66.10
2022-10-20T14:46:29.558Z,66.31
2022-10-20T14:57:35.281Z,66.31
2022-10-20T15:02:58.385Z,66.32
2022-10-20T15:14:01.205Z,67.29
2022-10-20T15:19:36.343Z,68.06
2022-10-20T15:24:42.794Z,68.70
2022-10-20T15:29:55.386Z,69.31
2022-10-20T15:34:57.050Z,69.89
2022-10-20T15:39:59.759Z,69.93
2022-10-20T15:45:01.595Z,70.74
2022-10-20T15:50:06.350Z,71.26
2022-10-20T16:00:48.213Z,72.26
2022-10-20T16:05:54.519Z,72.68
2022-10-20T16:11:08.901Z,73.04
2022-10-20T16:28:12.489Z,74.42
2022-10-20T16:33:42.829Z,74.82
2022-10-20T16:57:40.509Z,75.85
2022-10-20T17:03:02.859Z,76.23
2022-10-20T17:08:21.000Z,76.45
2022-10-20T17:13:24.551Z,76.00
2022-10-20T17:24:15.535Z,76.93
2022-10-20T17:29:18.581Z,77.25
2022-10-20T17:34:24.054Z,77.30
2022-10-20T17:39:28.896Z,77.35
2022-10-20T17:44:30.621Z,77.16
2022-10-20T17:49:32.399Z,77.19
2022-10-20T17:54:43.289Z,77.13
2022-10-20T17:59:52.885Z,77.11
2022-10-20T18:05:01.046Z,76.79
2022-10-20T18:10:10.817Z,77.08
2022-10-20T18:27:05.119Z,77.26
2022-10-20T18:32:15.609Z,77.51
2022-10-20T18:37:20.379Z,77.43
2022-10-20T18:42:22.301Z,77.78
2022-10-20T18:59:00.715Z,77.85
2022-10-20T19:04:10.297Z,77.49
2022-10-20T19:09:23.599Z,77.04
2022-10-20T19:14:31.382Z,77.01
2022-10-20T19:19:38.268Z,76.49
2022-10-20T19:24:47.698Z,76.49
2022-10-20T19:30:07.761Z,76.34
2022-10-20T19:41:12.201Z,75.85
2022-10-20T19:46:22.129Z,75.40
2022-10-20T19:57:15.610Z,74.69
2022-10-20T20:02:32.033Z,74.19
2022-10-20T20:07:38.815Z,73.93
2022-10-20T20:13:01.959Z,73.81
2022-10-20T20:24:27.012Z,73.50
2022-10-20T20:35:16.495Z,73.60
2022-10-20T20:41:22.463Z,73.59
2022-10-20T20:46:31.208Z,73.91
2022-10-20T20:51:34.069Z,73.67
2022-10-20T20:56:40.122Z,73.55
2022-10-20T21:07:08.082Z,73.75
2022-10-20T21:18:01.779Z,73.94
2022-10-20T21:23:12.539Z,73.67
2022-10-20T21:28:25.556Z,73.62
2022-10-20T21:55:37.735Z,72.84
2022-10-20T22:00:42.084Z,72.71
2022-10-20T22:05:44.010Z,72.55
2022-10-20T22:16:44.989Z,72.60
2022-10-20T22:27:44.277Z,73.25
2022-10-20T22:33:14.497Z,73.62
2022-10-20T22:38:16.449Z,73.80
2022-10-20T22:43:25.328Z,73.79
2022-10-20T23:00:22.272Z,73.98
2022-10-20T23:05:34.406Z,74.29
2022-10-20T23:16:13.494Z,74.58
2022-10-20T23:21:19.213Z,74.70
2022-10-20T23:26:35.756Z,74.64
2022-10-20T23:31:57.139Z,74.97
2022-10-20T23:37:18.952Z,75.06
2022-10-20T23:42:23.442Z,75.19
2022-10-20T23:47:28.338Z,75.02
